Time,TemperatureF,DewpointF,PressureIn,WindDirection,WindDirectionDegrees,WindSpeedMPH,WindSpeedGustMPH,Humidity,HourlyPrecipIn,Conditions,Clouds,dailyrainin,SoftwareType,DateUTC
2013-02-09 00:00:00,55.6,52.4,30.08,NW,307,0.0,1.0,89,0.00,,,0.00,Wunderground v.1.15,2013-02-09 05:00:00,
2013-02-09 00:05:00,55.5,52.3,30.08,NW,307,0.0,1.0,89,0.00,,,0.00,Wunderground v.1.15,2013-02-09 05:05:00,
2013-02-09 00:10:00,55.5,52.3,30.08,WNW,299,1.0,1.0,89,0.00,,,0.00,Wunderground v.1.15,2013-02-09 05:10:00,
2013-02-09 00:20:00,55.4,52.2,30.08,NW,305,0.0,0.0,89,0.00,,,0.00,Wunderground v.1.15,2013-02-09 05:20:00,
2013-02-09 00:25:00,55.3,52.1,30.08,NW,305,0.0,0.0,89,0.00,,,0.00,Wunderground v.1.15,2013-02-09 05:25:00,
2013-02-09 00:30:00,55.3,52.1,30.08,NW,305,0.0,0.0,89,0.00,,,0.00,Wunderground v.1.15,2013-02-09 05:30:00,
2013-02-09 00:40:00,55.1,51.9,30.08,NW,304,0.0,2.0,89,0.00,,,0.00,Wunderground v.1.15,2013-02-09 05:40:00,
2013-02-09 00:45:00,55.0,51.8,30.08,NW,304,0.0,2.0,89,0.00,,,0.00,Wunderground v.1.15,2013-02-09 05:45:00,
2013-02-09 00:55:00,54.8,51.9,30.08,NW,304,0.0,0.0,90,0.00,,,0.00,Wunderground v.1.15,2013-02-09 05:55:00,
2013-02-09 01:05:00,54.6,51.7,30.08,NW,304,0.0,0.0,90,0.00,,,0.00,Wunderground v.1.15,2013-02-09 06:05:00,
2013-02-09 01:10:00,54.5,51.6,30.08,NW,304,0.0,0.0,90,0.00,,,0.00,Wunderground v.1.15,2013-02-09 06:10:00,
2013-02-09 01:20:00,54.4,51.5,30.08,NW,304,0.0,0.0,90,0.00,,,0.00,Wunderground v.1.15,2013-02-09 06:20:00,
2013-02-09 01:30:00,54.3,51.4,30.08,NW,304,0.0,0.0,90,0.00,,,0.00,Wunderground v.1.15,2013-02-09 06:30:00,
2013-02-09 01:35:00,54.3,51.4,30.08,NW,304,0.0,0.0,90,0.00,,,0.00,Wunderground v.1.15,2013-02-09 06:35:00,
2013-02-09 01:45:00,54.1,51.5,30.09,NW,311,1.0,1.0,91,0.00,,,0.00,Wunderground v.1.15,2013-02-09 06:45:00,
2013-02-09 01:55:00,54.1,51.5,30.09,WNW,300,1.0,2.0,91,0.00,,,0.00,Wunderground v.1.15,2013-02-09 06:55:00,
2013-02-09 02:00:00,54.0,51.4,30.09,NW,313,2.0,2.0,91,0.00,,,0.00,Wunderground v.1.15,2013-02-09 07:00:00,
2013-02-09 02:05:00,53.9,51.3,30.09,NW,314,2.0,2.0,91,0.00,,,0.00,Wunderground v.1.15,2013-02-09 07:05:00,
2013-02-09 02:15:00,53.8,51.2,30.09,WNW,302,1.0,2.0,91,0.00,,,0.00,Wunderground v.1.15,2013-02-09 07:15:00,
2013-02-09 02:25:00,53.6,51.0,30.09,WNW,287,2.0,2.0,91,0.00,,,0.00,Wunderground v.1.15,2013-02-09 07:25:00,
2013-02-09 02:35:00,53.5,50.9,30.09,NW,306,2.0,4.0,91,0.00,,,0.00,Wunderground v.1.15,2013-02-09 07:35:00,
2013-02-09 02:45:00,53.4,50.8,30.09,NW,318,2.0,4.0,91,0.00,,,0.00,Wunderground v.1.15,2013-02-09 07:45:00,
2013-02-09 02:55:00,53.4,50.8,30.09,NNW,344,4.0,4.0,91,0.00,,,0.00,Wunderground v.1.15,2013-02-09 07:55:00,
2013-02-09 03:05:00,53.3,50.7,30.09,NW,317,3.0,4.0,91,0.00,,,0.00,Wunderground v.1.15,2013-02-09 08:05:00,
2013-02-09 03:10:00,53.2,50.6,30.09,WNW,300,4.0,7.0,91,0.00,,,0.00,Wunderground v.1.15,2013-02-09 08:10:00,
2013-02-09 03:20:00,53.1,50.5,30.10,NW,312,5.0,5.0,91,0.00,,,0.00,Wunderground v.1.15,2013-02-09 08:20:00,
2013-02-09 03:30:00,53.0,50.4,30.10,NNW,344,4.0,4.0,91,0.00,,,0.00,Wunderground v.1.15,2013-02-09 08:30:00,
2013-02-09 03:35:00,52.9,50.3,30.10,NNW,331,3.0,4.0,91,0.00,,,0.00,Wunderground v.1.15,2013-02-09 08:35:00,
2013-02-09 03:40:00,52.8,50.2,30.10,NW,309,2.0,4.0,91,0.00,,,0.00,Wunderground v.1.15,2013-02-09 08:40:00,
2013-02-09 03:50:00,52.6,50.0,30.10,WNW,303,3.0,4.0,91,0.00,,,0.00,Wunderground v.1.15,2013-02-09 08:50:00,
2013-02-09 04:00:00,52.4,49.8,30.10,NW,325,4.0,4.0,91,0.00,,,0.00,Wunderground v.1.15,2013-02-09 09:00:00,
2013-02-09 04:05:00,52.3,49.8,30.10,NW,304,3.0,4.0,91,0.00,,,0.00,Wunderground v.1.15,2013-02-09 09:05:00,
2013-02-09 04:15:00,52.1,49.6,30.11,NW,323,2.0,5.0,91,0.00,,,0.00,Wunderground v.1.15,2013-02-09 09:15:00,
2013-02-09 04:25:00,51.9,49.4,30.11,NW,311,4.0,5.0,91,0.00,,,0.00,Wunderground v.1.15,2013-02-09 09:25:00,
2013-02-09 04:35:00,51.7,49.2,30.11,NW,320,3.0,4.0,91,0.00,,,0.00,Wunderground v.1.15,2013-02-09 09:35:00,
2013-02-09 04:45:00,51.5,48.7,30.12,NW,312,3.0,4.0,90,0.00,,,0.00,Wunderground v.1.15,2013-02-09 09:45:00,
2013-02-09 04:55:00,51.4,48.6,30.12,NW,308,5.0,7.0,90,0.00,,,0.00,Wunderground v.1.15,2013-02-09 09:55:00,
2013-02-09 05:05:00,51.3,48.5,30.13,NNW,339,2.0,3.0,90,0.00,,,0.00,Wunderground v.1.15,2013-02-09 10:05:00,
2013-02-09 05:15:00,51.2,48.7,30.13,NNW,344,3.0,5.0,91,0.00,,,0.00,Wunderground v.1.15,2013-02-09 10:15:00,
2013-02-09 05:25:00,51.1,48.6,30.14,NW,311,3.0,7.0,91,0.00,,,0.00,Wunderground v.1.15,2013-02-09 10:25:00,
2013-02-09 05:35:00,50.8,48.0,30.14,NNW,339,4.0,5.0,90,0.00,,,0.00,Wunderground v.1.15,2013-02-09 10:35:00,
2013-02-09 05:40:00,50.7,47.9,30.15,NW,320,3.0,7.0,90,0.00,,,0.00,Wunderground v.1.15,2013-02-09 10:40:00,
2013-02-09 05:50:00,50.6,47.8,30.16,NW,304,4.0,4.0,90,0.00,,,0.00,Wunderground v.1.15,2013-02-09 10:50:00,
2013-02-09 06:00:00,50.4,47.3,30.16,NNW,340,2.0,4.0,89,0.00,,,0.00,Wunderground v.1.15,2013-02-09 11:00:00,
2013-02-09 06:10:00,50.3,47.2,30.16,NNW,333,2.0,2.0,89,0.00,,,0.00,Wunderground v.1.15,2013-02-09 11:10:00,
2013-02-09 06:20:00,50.1,47.0,30.17,NNW,335,2.0,4.0,89,0.00,,,0.00,Wunderground v.1.15,2013-02-09 11:20:00,
2013-02-09 06:25:00,50.0,46.9,30.17,NNW,327,2.0,4.0,89,0.00,,,0.00,Wunderground v.1.15,2013-02-09 11:25:00,
2013-02-09 06:35:00,49.7,46.6,30.17,NNW,328,3.0,5.0,89,0.00,,,0.00,Wunderground v.1.15,2013-02-09 11:35:00,
2013-02-09 06:45:00,49.6,46.5,30.17,NNW,327,3.0,4.0,89,0.00,,,0.00,Wunderground v.1.15,2013-02-09 11:45:00,
2013-02-09 06:50:00,49.5,46.4,30.17,NW,325,3.0,3.0,89,0.00,,,0.00,Wunderground v.1.15,2013-02-09 11:50:00,
2013-02-09 07:00:00,49.2,45.8,30.17,NW,326,2.0,2.0,88,0.00,,,0.00,Wunderground v.1.15,2013-02-09 12:00:00,
2013-02-09 07:05:00,49.1,45.7,30.17,East,86,2.0,2.0,88,0.00,,,0.00,Wunderground v.1.15,2013-02-09 12:05:00,
2013-02-09 07:15:00,49.0,45.6,30.17,NE,42,1.0,1.0,88,0.00,,,0.00,Wunderground v.1.15,2013-02-09 12:15:00,
2013-02-09 07:25:00,48.8,45.4,30.18,NW,313,2.0,2.0,88,0.00,,,0.00,Wunderground v.1.15,2013-02-09 12:25:00,
2013-02-09 07:35:00,48.7,45.3,30.19,NW,316,1.0,1.0,88,0.00,,,0.00,Wunderground v.1.15,2013-02-09 12:35:00,
2013-02-09 07:40:00,48.7,45.3,30.19,NW,311,1.0,1.0,88,0.00,,,0.00,Wunderground v.1.15,2013-02-09 12:40:00,
2013-02-09 07:50:00,48.7,45.3,30.20,NE,39,2.0,2.0,88,0.00,,,0.00,Wunderground v.1.15,2013-02-09 12:50:00,
2013-02-09 08:00:00,48.7,45.3,30.20,NNW,331,2.0,5.0,88,0.00,,,0.00,Wunderground v.1.15,2013-02-09 13:00:00,
2013-02-09 08:05:00,48.7,45.3,30.20,ENE,61,2.0,5.0,88,0.00,,,0.00,Wunderground v.1.15,2013-02-09 13:05:00,
2013-02-09 08:15:00,49.0,45.9,30.20,NW,317,1.0,4.0,89,0.00,,,0.00,Wunderground v.1.15,2013-02-09 13:15:00,
2013-02-09 08:25:00,49.2,45.8,30.20,North,11,2.0,2.0,88,0.00,,,0.00,Wunderground v.1.15,2013-02-09 13:25:00,
2013-02-09 08:30:00,49.4,46.0,30.20,North,351,2.0,2.0,88,0.00,,,0.00,Wunderground v.1.15,2013-02-09 13:30:00,
2013-02-09 08:40:00,49.9,46.5,30.20,NNW,347,1.0,1.0,88,0.00,,,0.00,Wunderground v.1.15,2013-02-09 13:40:00,
2013-02-09 08:50:00,50.5,47.1,30.20,NE,53,2.0,2.0,88,0.00,,,0.00,Wunderground v.1.15,2013-02-09 13:50:00,
2013-02-09 09:00:00,51.3,47.9,30.21,ENE,71,1.0,1.0,88,0.00,,,0.00,Wunderground v.1.15,2013-02-09 14:00:00,
2013-02-09 09:05:00,51.7,48.0,30.21,ENE,62,1.0,1.0,87,0.00,,,0.00,Wunderground v.1.15,2013-02-09 14:05:00,
2013-02-09 09:15:00,52.4,48.3,30.22,East,88,1.0,1.0,86,0.00,,,0.00,Wunderground v.1.15,2013-02-09 14:15:00,
2013-02-09 09:25:00,53.1,49.0,30.22,East,93,1.0,1.0,86,0.00,,,0.00,Wunderground v.1.15,2013-02-09 14:25:00,
2013-02-09 09:35:00,53.9,49.8,30.22,NE,39,1.0,2.0,86,0.00,,,0.00,Wunderground v.1.15,2013-02-09 14:35:00,
2013-02-09 09:40:00,54.3,50.2,30.23,ENE,77,1.0,1.0,86,0.00,,,0.00,Wunderground v.1.15,2013-02-09 14:40:00,
2013-02-09 09:50:00,54.8,50.4,30.23,NNW,327,1.0,1.0,85,0.00,,,0.00,Wunderground v.1.15,2013-02-09 14:50:00,
2013-02-09 10:00:00,55.5,50.7,30.24,ENE,78,1.0,1.0,84,0.00,,,0.00,Wunderground v.1.15,2013-02-09 15:00:00,
2013-02-09 10:05:00,55.9,50.8,30.24,NW,317,1.0,1.0,83,0.00,,,0.00,Wunderground v.1.15,2013-02-09 15:05:00,
2013-02-09 10:15:00,56.6,51.5,30.24,East,88,1.0,1.0,83,0.00,,,0.00,Wunderground v.1.15,2013-02-09 15:15:00,
2013-02-09 10:25:00,57.7,51.9,30.24,NNW,348,1.0,2.0,81,0.00,,,0.00,Wunderground v.1.15,2013-02-09 15:25:00,
2013-02-09 10:30:00,58.0,52.2,30.25,NW,321,1.0,1.0,81,0.00,,,0.00,Wunderground v.1.15,2013-02-09 15:30:00,
2013-02-09 10:40:00,58.8,52.3,30.24,East,97,1.0,2.0,79,0.00,,,0.00,Wunderground v.1.15,2013-02-09 15:40:00,
2013-02-09 10:50:00,59.8,52.6,30.24,ESE,105,1.0,1.0,77,0.00,,,0.00,Wunderground v.1.15,2013-02-09 15:50:00,
2013-02-09 11:00:00,60.5,51.8,30.25,East,92,2.0,2.0,73,0.00,,,0.00,Wunderground v.1.15,2013-02-09 16:00:00,
2013-02-09 11:05:00,61.0,51.9,30.25,NW,317,2.0,4.0,72,0.00,,,0.00,Wunderground v.1.15,2013-02-09 16:05:00,
2013-02-09 11:15:00,61.6,51.3,30.25,East,88,2.0,6.0,69,0.00,,,0.00,Wunderground v.1.15,2013-02-09 16:15:00,
2013-02-09 11:25:00,62.0,51.3,30.25,East,92,3.0,4.0,68,0.00,,,0.00,Wunderground v.1.15,2013-02-09 16:25:00,
2013-02-09 11:35:00,62.1,51.0,30.25,East,88,4.0,5.0,67,0.00,,,0.00,Wunderground v.1.15,2013-02-09 16:35:00,
2013-02-09 11:40:00,62.2,51.9,30.25,East,92,3.0,5.0,69,0.00,,,0.00,Wunderground v.1.15,2013-02-09 16:40:00,
2013-02-09 11:50:00,62.6,51.5,30.25,ENE,67,3.0,4.0,67,0.00,,,0.00,Wunderground v.1.15,2013-02-09 16:50:00,
2013-02-09 12:00:00,62.9,51.0,30.24,East,96,3.0,3.0,65,0.00,,,0.00,Wunderground v.1.15,2013-02-09 17:00:00,
2013-02-09 12:10:00,63.3,51.3,30.24,East,94,3.0,6.0,65,0.00,,,0.00,Wunderground v.1.15,2013-02-09 17:10:00,
2013-02-09 12:20:00,63.4,51.4,30.24,East,88,4.0,4.0,65,0.00,,,0.00,Wunderground v.1.15,2013-02-09 17:20:00,
2013-02-09 12:30:00,63.2,50.4,30.24,East,81,4.0,4.0,63,0.00,,,0.00,Wunderground v.1.15,2013-02-09 17:30:00,
2013-02-09 12:35:00,63.2,50.8,30.24,East,81,4.0,11.0,64,0.00,,,0.00,Wunderground v.1.15,2013-02-09 17:35:00,
2013-02-09 12:45:00,63.1,50.7,30.24,East,87,4.0,7.0,64,0.00,,,0.00,Wunderground v.1.15,2013-02-09 17:45:00,
2013-02-09 12:50:00,63.2,49.1,30.23,East,91,4.0,7.0,60,0.00,,,0.00,Wunderground v.1.15,2013-02-09 17:50:00,
2013-02-09 13:00:00,63.1,48.5,30.23,East,85,5.0,6.0,59,0.00,,,0.00,Wunderground v.1.15,2013-02-09 18:00:00,
2013-02-09 13:05:00,63.1,48.5,30.22,ENE,62,5.0,6.0,59,0.00,,,0.00,Wunderground v.1.15,2013-02-09 18:05:00,
2013-02-09 13:15:00,63.1,48.5,30.22,East,91,4.0,7.0,59,0.00,,,0.00,Wunderground v.1.15,2013-02-09 18:15:00,
2013-02-09 13:20:00,63.1,48.5,30.22,East,82,4.0,4.0,59,0.00,,,0.00,Wunderground v.1.15,2013-02-09 18:20:00,
2013-02-09 13:30:00,63.1,48.1,30.22,East,86,4.0,4.0,58,0.00,,,0.00,Wunderground v.1.15,2013-02-09 18:30:00,
2013-02-09 13:35:00,63.1,48.5,30.22,NE,38,4.0,4.0,59,0.00,,,0.00,Wunderground v.1.15,2013-02-09 18:35:00,
2013-02-09 13:45:00,63.2,48.2,30.21,East,98,5.0,7.0,58,0.00,,,0.00,Wunderground v.1.15,2013-02-09 18:45:00,
2013-02-09 13:55:00,63.2,49.1,30.21,East,85,5.0,5.0,60,0.00,,,0.00,Wunderground v.1.15,2013-02-09 18:55:00,
2013-02-09 14:05:00,63.4,49.7,30.21,North,355,4.0,6.0,61,0.00,,,0.00,Wunderground v.1.15,2013-02-09 19:05:00,
2013-02-09 14:10:00,63.7,50.0,30.21,East,85,4.0,4.0,61,0.00,,,0.00,Wunderground v.1.15,2013-02-09 19:10:00,
2013-02-09 14:20:00,63.5,49.8,30.21,ENE,60,4.0,6.0,61,0.00,,,0.00,Wunderground v.1.15,2013-02-09 19:20:00,
2013-02-09 14:30:00,63.3,49.2,30.21,ESE,121,4.0,5.0,60,0.00,,,0.00,Wunderground v.1.15,2013-02-09 19:30:00,
2013-02-09 14:35:00,63.2,49.5,30.21,ENE,78,4.0,5.0,61,0.00,,,0.00,Wunderground v.1.15,2013-02-09 19:35:00,
2013-02-09 14:45:00,63.0,49.3,30.20,ENE,71,4.0,7.0,61,0.00,,,0.00,Wunderground v.1.15,2013-02-09 19:45:00,
2013-02-09 14:55:00,63.0,48.4,30.20,ENE,76,4.0,4.0,59,0.00,,,0.00,Wunderground v.1.15,2013-02-09 19:55:00,
2013-02-09 15:05:00,62.8,47.8,30.20,East,92,5.0,6.0,58,0.00,,,0.00,Wunderground v.1.15,2013-02-09 20:05:00,
2013-02-09 15:15:00,62.6,49.0,30.21,East,86,4.0,5.0,61,0.00,,,0.00,Wunderground v.1.15,2013-02-09 20:15:00,
2013-02-09 15:25:00,62.3,48.2,30.21,East,94,5.0,6.0,60,0.00,,,0.00,Wunderground v.1.15,2013-02-09 20:25:00,
2013-02-09 15:35:00,62.3,47.3,30.21,ENE,78,4.0,4.0,58,0.00,,,0.00,Wunderground v.1.15,2013-02-09 20:35:00,
2013-02-09 15:45:00,62.1,46.7,30.21,ENE,66,4.0,4.0,57,0.00,,,0.00,Wunderground v.1.15,2013-02-09 20:45:00,
2013-02-09 15:50:00,62.0,46.6,30.21,East,86,4.0,4.0,57,0.00,,,0.00,Wunderground v.1.15,2013-02-09 20:50:00,
2013-02-09 16:00:00,61.7,46.8,30.21,East,90,4.0,5.0,58,0.00,,,0.00,Wunderground v.1.15,2013-02-09 21:00:00,
2013-02-09 16:05:00,61.6,45.7,30.22,East,90,4.0,5.0,56,0.00,,,0.00,Wunderground v.1.15,2013-02-09 21:05:00,
2013-02-09 16:15:00,61.4,46.0,30.22,East,95,4.0,7.0,57,0.00,,,0.00,Wunderground v.1.15,2013-02-09 21:15:00,
2013-02-09 16:25:00,61.0,45.2,30.22,East,82,5.0,5.0,56,0.00,,,0.00,Wunderground v.1.15,2013-02-09 21:25:00,
2013-02-09 16:35:00,60.8,44.5,30.22,East,84,4.0,4.0,55,0.00,,,0.00,Wunderground v.1.15,2013-02-09 21:35:00,
2013-02-09 16:40:00,60.8,45.0,30.22,NE,55,3.0,6.0,56,0.00,,,0.00,Wunderground v.1.15,2013-02-09 21:40:00,
2013-02-09 16:50:00,60.6,44.8,30.23,East,86,4.0,4.0,56,0.00,,,0.00,Wunderground v.1.15,2013-02-09 21:50:00,
2013-02-09 17:00:00,60.4,44.2,30.23,East,98,3.0,5.0,55,0.00,,,0.00,Wunderground v.1.15,2013-02-09 22:00:00,
2013-02-09 17:05:00,60.4,44.6,30.23,East,80,3.0,5.0,56,0.00,,,0.00,Wunderground v.1.15,2013-02-09 22:05:00,
2013-02-09 17:15:00,60.1,44.8,30.23,East,82,3.0,4.0,57,0.00,,,0.00,Wunderground v.1.15,2013-02-09 22:15:00,
2013-02-09 17:25:00,59.7,43.5,30.23,ENE,64,2.0,3.0,55,0.00,,,0.00,Wunderground v.1.15,2013-02-09 22:25:00,
2013-02-09 17:30:00,59.5,43.3,30.23,East,81,2.0,3.0,55,0.00,,,0.00,Wunderground v.1.15,2013-02-09 22:30:00,
2013-02-09 17:40:00,59.2,42.6,30.23,East,80,3.0,3.0,54,0.00,,,0.00,Wunderground v.1.15,2013-02-09 22:40:00,
2013-02-09 17:50:00,59.0,43.3,30.23,East,81,3.0,3.0,56,0.00,,,0.00,Wunderground v.1.15,2013-02-09 22:50:00,
2013-02-09 17:55:00,58.9,43.2,30.23,East,94,3.0,5.0,56,0.00,,,0.00,Wunderground v.1.15,2013-02-09 22:55:00,
2013-02-09 18:05:00,58.6,43.9,30.23,East,84,3.0,3.0,58,0.00,,,0.00,Wunderground v.1.15,2013-02-09 23:05:00,
2013-02-09 18:15:00,58.3,43.6,30.23,ESE,104,3.0,7.0,58,0.00,,,0.00,Wunderground v.1.15,2013-02-09 23:15:00,
2013-02-09 18:20:00,58.1,43.4,30.23,ENE,74,2.0,3.0,58,0.00,,,0.00,Wunderground v.1.15,2013-02-09 23:20:00,
2013-02-09 18:30:00,57.9,43.7,30.23,ENE,73,2.0,2.0,59,0.00,,,0.00,Wunderground v.1.15,2013-02-09 23:30:00,
2013-02-09 18:35:00,57.7,43.9,30.22,East,83,2.0,2.0,60,0.00,,,0.00,Wunderground v.1.15,2013-02-09 23:35:00,
2013-02-09 18:40:00,57.6,43.4,30.22,ENE,70,2.0,2.0,59,0.00,,,0.00,Wunderground v.1.15,2013-02-09 23:40:00,
2013-02-09 18:50:00,57.4,44.5,30.22,East,84,2.0,2.0,62,0.00,,,0.00,Wunderground v.1.15,2013-02-09 23:50:00,
2013-02-09 19:00:00,57.3,44.4,30.22,East,84,2.0,2.0,62,0.00,,,0.00,Wunderground v.1.15,2013-02-10 00:00:00,
2013-02-09 19:05:00,57.2,44.7,30.22,East,83,2.0,2.0,63,0.00,,,0.00,Wunderground v.1.15,2013-02-10 00:05:00,
2013-02-09 19:15:00,57.0,45.3,30.22,ENE,65,2.0,3.0,65,0.00,,,0.00,Wunderground v.1.15,2013-02-10 00:15:00,
2013-02-09 19:25:00,56.9,45.7,30.23,ENE,72,1.0,2.0,66,0.00,,,0.00,Wunderground v.1.15,2013-02-10 00:25:00,
2013-02-09 19:35:00,56.8,46.0,30.23,ENE,76,1.0,2.0,67,0.00,,,0.00,Wunderground v.1.15,2013-02-10 00:35:00,
2013-02-09 19:40:00,56.7,45.9,30.23,East,86,1.0,3.0,67,0.00,,,0.00,Wunderground v.1.15,2013-02-10 00:40:00,
2013-02-09 19:50:00,56.7,46.3,30.24,East,95,2.0,2.0,68,0.00,,,0.00,Wunderground v.1.15,2013-02-10 00:50:00,
2013-02-09 20:00:00,56.6,46.5,30.24,East,95,1.0,1.0,69,0.00,,,0.00,Wunderground v.1.15,2013-02-10 01:00:00,
2013-02-09 20:05:00,56.4,46.4,30.24,East,94,0.0,1.0,69,0.00,,,0.00,Wunderground v.1.15,2013-02-10 01:05:00,
2013-02-09 20:15:00,56.4,46.7,30.24,East,94,1.0,1.0,70,0.00,,,0.00,Wunderground v.1.15,2013-02-10 01:15:00,
2013-02-09 20:25:00,56.3,47.0,30.24,East,94,0.0,0.0,71,0.00,,,0.00,Wunderground v.1.15,2013-02-10 01:25:00,
2013-02-09 20:35:00,56.2,46.9,30.24,East,98,0.0,0.0,71,0.00,,,0.00,Wunderground v.1.15,2013-02-10 01:35:00,
2013-02-09 20:45:00,56.0,47.1,30.25,East,98,0.0,0.0,72,0.00,,,0.00,Wunderground v.1.15,2013-02-10 01:45:00,
2013-02-09 20:50:00,55.8,46.9,30.25,East,98,0.0,0.0,72,0.00,,,0.00,Wunderground v.1.15,2013-02-10 01:50:00,
2013-02-09 21:00:00,55.3,46.8,30.25,East,98,0.0,0.0,73,0.00,,,0.00,Wunderground v.1.15,2013-02-10 02:00:00,
2013-02-09 21:10:00,54.7,46.9,30.25,East,98,0.0,0.0,75,0.00,,,0.00,Wunderground v.1.15,2013-02-10 02:10:00,
2013-02-09 21:20:00,54.0,46.6,30.26,East,98,0.0,0.0,76,0.00,,,0.00,Wunderground v.1.15,2013-02-10 02:20:00,
2013-02-09 21:30:00,53.3,46.3,30.26,East,98,0.0,0.0,77,0.00,,,0.00,Wunderground v.1.15,2013-02-10 02:30:00,
2013-02-09 21:35:00,53.1,46.4,30.26,East,98,0.0,0.0,78,0.00,,,0.00,Wunderground v.1.15,2013-02-10 02:35:00,
2013-02-09 21:40:00,53.0,46.3,30.26,East,98,0.0,0.0,78,0.00,,,0.00,Wunderground v.1.15,2013-02-10 02:40:00,
2013-02-09 21:50:00,52.7,46.4,30.26,East,98,0.0,0.0,79,0.00,,,0.00,Wunderground v.1.15,2013-02-10 02:50:00,
2013-02-09 22:00:00,52.2,45.9,30.26,East,98,0.0,0.0,79,0.00,,,0.00,Wunderground v.1.15,2013-02-10 03:00:00,
2013-02-09 22:05:00,52.1,46.1,30.26,East,98,0.0,0.0,80,0.00,,,0.00,Wunderground v.1.15,2013-02-10 03:05:00,
2013-02-09 22:15:00,51.9,46.3,30.26,East,98,0.0,0.0,81,0.00,,,0.00,Wunderground v.1.15,2013-02-10 03:15:00,
2013-02-09 22:25:00,51.9,46.3,30.25,East,98,0.0,0.0,81,0.00,,,0.00,Wunderground v.1.15,2013-02-10 03:25:00,
2013-02-09 22:35:00,52.2,46.9,30.25,East,98,0.0,0.0,82,0.00,,,0.00,Wunderground v.1.15,2013-02-10 03:35:00,
2013-02-09 22:45:00,53.3,47.9,30.25,East,98,0.0,0.0,82,0.00,,,0.00,Wunderground v.1.15,2013-02-10 03:45:00,
2013-02-09 22:55:00,55.3,48.9,30.25,East,84,2.0,2.0,79,0.00,,,0.00,Wunderground v.1.15,2013-02-10 03:55:00,
2013-02-09 23:05:00,56.3,49.5,30.25,East,83,2.0,2.0,78,0.00,,,0.00,Wunderground v.1.15,2013-02-10 04:05:00,
2013-02-09 23:15:00,56.9,49.4,30.25,East,92,3.0,4.0,76,0.00,,,0.00,Wunderground v.1.15,2013-02-10 04:15:00,
2013-02-09 23:20:00,57.2,49.3,30.25,East,88,3.0,4.0,75,0.00,,,0.00,Wunderground v.1.15,2013-02-10 04:20:00,
2013-02-09 23:30:00,57.4,49.5,30.25,ENE,72,3.0,3.0,75,0.00,,,0.00,Wunderground v.1.15,2013-02-10 04:30:00,
2013-02-09 23:35:00,57.4,49.9,30.25,East,82,3.0,3.0,76,0.00,,,0.00,Wunderground v.1.15,2013-02-10 04:35:00,
2013-02-09 23:45:00,57.5,50.0,30.25,East,92,2.0,3.0,76,0.00,,,0.00,Wunderground v.1.15,2013-02-10 04:45:00,
2013-02-09 23:55:00,57.4,49.9,30.25,East,92,0.0,4.0,76,0.00,,,0.00,Wunderground v.1.15,2013-02-10 04:55:00,